sensor_id;sensor_type;location;lat;lon;timestamp;pressure;altitude;pressure_sealevel;temperature;humidity
13594;BME280;6449;47.666;9.160;2023-01-31T00:02:59;98001.03;;;1.80;100.00
13594;BME280;6449;47.666;9.160;2023-01-31T00:07:53;97997.84;;;1.69;100.00
13594;BME280;6449;47.666;9.160;2023-01-31T00:12:46;97994.44;;;1.68;100.00
13594;BME280;6449;47.666;9.160;2023-01-31T00:17:40;98001.28;;;1.69;100.00
13594;BME280;6449;47.666;9.160;2023-01-31T00:48:10;97977.34;;;1.22;100.00
13594;BME280;6449;47.666;9.160;2023-01-31T00:53:04;97973.72;;;1.31;100.00
13594;BME280;6449;47.666;9.160;2023-01-31T00:57:57;97971.94;;;1.33;100.00
13594;BME280;6449;47.666;9.160;2023-01-31T01:02:51;97969.34;;;1.35;100.00
13594;BME280;6449;47.666;9.160;2023-01-31T01:07:45;97970.53;;;1.20;100.00
13594;BME280;6449;47.666;9.160;2023-01-31T01:12:39;97968.72;;;1.23;100.00
13594;BME280;6449;47.666;9.160;2023-01-31T01:17:32;97973.53;;;1.40;100.00
13594;BME280;6449;47.666;9.160;2023-01-31T01:27:23;97971.09;;;1.33;100.00
13594;BME280;6449;47.666;9.160;2023-01-31T01:37:20;97971.97;;;1.31;100.00
13594;BME280;6449;47.666;9.160;2023-01-31T01:58:03;97985.94;;;1.63;100.00
13594;BME280;6449;47.666;9.160;2023-01-31T02:08:05;97974.59;;;1.69;100.00
13594;BME280;6449;47.666;9.160;2023-01-31T02:13:01;97983.38;;;1.62;100.00
13594;BME280;6449;47.666;9.160;2023-01-31T02:17:54;97990.31;;;1.60;100.00
13594;BME280;6449;47.666;9.160;2023-01-31T02:23:10;97980.25;;;1.47;100.00
13594;BME280;6449;47.666;9.160;2023-01-31T02:29:03;97989.78;;;1.45;100.00
13594;BME280;6449;47.666;9.160;2023-01-31T02:34:07;97995.00;;;1.42;100.00
13594;BME280;6449;47.666;9.160;2023-01-31T02:49:33;97998.41;;;1.44;100.00
13594;BME280;6449;47.666;9.160;2023-01-31T02:54:32;98004.72;;;1.71;100.00
13594;BME280;6449;47.666;9.160;2023-01-31T02:59:40;97990.31;;;1.60;100.00
13594;BME280;6449;47.666;9.160;2023-01-31T03:04:36;98001.47;;;1.62;100.00
13594;BME280;6449;47.666;9.160;2023-01-31T03:19:54;97991.66;;;1.39;100.00
13594;BME280;6449;47.666;9.160;2023-01-31T05:12:19;98086.97;;;0.04;100.00
13594;BME280;6449;47.666;9.160;2023-01-31T05:17:12;98090.22;;;0.18;100.00
13594;BME280;6449;47.666;9.160;2023-01-31T05:22:08;98097.91;;;0.20;100.00
13594;BME280;6449;47.666;9.160;2023-01-31T05:27:02;98101.28;;;0.25;100.00
13594;BME280;6449;47.666;9.160;2023-01-31T05:32:01;98103.75;;;0.33;100.00
13594;BME280;6449;47.666;9.160;2023-01-31T05:36:55;98101.03;;;0.40;100.00
13594;BME280;6449;47.666;9.160;2023-01-31T05:41:49;98104.53;;;0.36;100.00
13594;BME280;6449;47.666;9.160;2023-01-31T05:46:44;98113.91;;;0.43;100.00
13594;BME280;6449;47.666;9.160;2023-01-31T05:51:39;98113.84;;;0.46;100.00
13594;BME280;6449;47.666;9.160;2023-01-31T05:56:33;98112.97;;;0.47;100.00
13594;BME280;6449;47.666;9.160;2023-01-31T06:01:27;98111.25;;;0.46;100.00
13594;BME280;6449;47.666;9.160;2023-01-31T06:06:21;98122.47;;;0.45;100.00
13594;BME280;6449;47.666;9.160;2023-01-31T06:11:16;98118.22;;;0.43;100.00
13594;BME280;6449;47.666;9.160;2023-01-31T06:16:11;98108.91;;;0.33;100.00
13594;BME280;6449;47.666;9.160;2023-01-31T06:21:06;98103.41;;;0.52;100.00
13594;BME280;6449;47.666;9.160;2023-01-31T06:25:59;98118.31;;;0.35;100.00
13594;BME280;6449;47.666;9.160;2023-01-31T06:30:54;98122.00;;;0.19;100.00
13594;BME280;6449;47.666;9.160;2023-01-31T06:35:48;98123.69;;;0.20;100.00
13594;BME280;6449;47.666;9.160;2023-01-31T06:40:42;98123.56;;;0.29;100.00
13594;BME280;6449;47.666;9.160;2023-01-31T06:45:35;98132.91;;;0.38;100.00
13594;BME280;6449;47.666;9.160;2023-01-31T06:50:31;98126.09;;;0.34;100.00
13594;BME280;6449;47.666;9.160;2023-01-31T06:55:25;98126.81;;;0.43;100.00
13594;BME280;6449;47.666;9.160;2023-01-31T07:00:19;98128.53;;;0.41;100.00
13594;BME280;6449;47.666;9.160;2023-01-31T07:05:13;98122.66;;;0.32;100.00
13594;BME280;6449;47.666;9.160;2023-01-31T07:10:10;98126.13;;;0.31;100.00
13594;BME280;6449;47.666;9.160;2023-01-31T07:15:05;98124.41;;;0.30;100.00
13594;BME280;6449;47.666;9.160;2023-01-31T07:19:58;98131.41;;;0.23;100.00
13594;BME280;6449;47.666;9.160;2023-01-31T07:24:52;98143.50;;;0.18;100.00
13594;BME280;6449;47.666;9.160;2023-01-31T07:29:47;98154.50;;;0.31;100.00
13594;BME280;6449;47.666;9.160;2023-01-31T07:34:40;98157.03;;;0.34;100.00
13594;BME280;6449;47.666;9.160;2023-01-31T07:39:34;98143.75;;;0.58;100.00
13594;BME280;6449;47.666;9.160;2023-01-31T07:44:27;98139.28;;;0.69;100.00
13594;BME280;6449;47.666;9.160;2023-01-31T07:49:22;98132.00;;;0.93;100.00
13594;BME280;6449;47.666;9.160;2023-01-31T07:54:15;98124.41;;;0.84;100.00
13594;BME280;6449;47.666;9.160;2023-01-31T07:59:09;98120.94;;;0.86;100.00
13594;BME280;6449;47.666;9.160;2023-01-31T08:04:04;98127.94;;;0.78;100.00
13594;BME280;6449;47.666;9.160;2023-01-31T08:09:13;98126.25;;;0.77;100.00
13594;BME280;6449;47.666;9.160;2023-01-31T08:14:06;98117.63;;;0.78;100.00
13594;BME280;6449;47.666;9.160;2023-01-31T08:19:01;98118.94;;;1.00;100.00
13594;BME280;6449;47.666;9.160;2023-01-31T08:23:54;98118.00;;;1.04;100.00
13594;BME280;6449;47.666;9.160;2023-01-31T08:28:51;98122.84;;;1.21;100.00
13594;BME280;6449;47.666;9.160;2023-01-31T08:33:46;98122.81;;;1.24;100.00
13594;BME280;6449;47.666;9.160;2023-01-31T08:38:42;98119.38;;;1.22;100.00
13594;BME280;6449;47.666;9.160;2023-01-31T08:43:45;98123.41;;;1.37;100.00
13594;BME280;6449;47.666;9.160;2023-01-31T08:48:50;98129.03;;;1.57;100.00
13594;BME280;6449;47.666;9.160;2023-01-31T08:53:44;98135.78;;;1.65;100.00
13594;BME280;6449;47.666;9.160;2023-01-31T10:50:48;98118.63;;;4.01;100.00
13594;BME280;6449;47.666;9.160;2023-01-31T11:00:43;98107.47;;;4.26;100.00
13594;BME280;6449;47.666;9.160;2023-01-31T11:05:48;98096.13;;;4.56;100.00
13594;BME280;6449;47.666;9.160;2023-01-31T11:10:51;98090.38;;;4.46;100.00
13594;BME280;6449;47.666;9.160;2023-01-31T11:15:45;98091.97;;;4.24;100.00
13594;BME280;6449;47.666;9.160;2023-01-31T11:20:46;98083.53;;;4.17;100.00
13594;BME280;6449;47.666;9.160;2023-01-31T11:25:47;98074.13;;;4.13;100.00
13594;BME280;6449;47.666;9.160;2023-01-31T11:40:56;98055.91;;;4.43;100.00
13594;BME280;6449;47.666;9.160;2023-01-31T11:45:56;98044.69;;;4.41;100.00
13594;BME280;6449;47.666;9.160;2023-01-31T11:50:53;98044.66;;;4.42;100.00
13594;BME280;6449;47.666;9.160;2023-01-31T11:55:50;98031.69;;;4.42;100.00
13594;BME280;6449;47.666;9.160;2023-01-31T12:00:55;98031.94;;;4.35;100.00
13594;BME280;6449;47.666;9.160;2023-01-31T12:05:58;98022.66;;;4.28;100.00
13594;BME280;6449;47.666;9.160;2023-01-31T12:10:52;98021.25;;;4.17;100.00
13594;BME280;6449;47.666;9.160;2023-01-31T12:15:57;98025.31;;;4.26;100.00
13594;BME280;6449;47.666;9.160;2023-01-31T12:21:02;98018.50;;;4.49;100.00
13594;BME280;6449;47.666;9.160;2023-01-31T12:31:31;98021.22;;;4.70;100.00
13594;BME280;6449;47.666;9.160;2023-01-31T12:41:40;98025.59;;;4.93;100.00
13594;BME280;6449;47.666;9.160;2023-01-31T12:46:46;98005.56;;;4.97;100.00
13594;BME280;6449;47.666;9.160;2023-01-31T12:52:11;97990.53;;;5.05;100.00
13594;BME280;6449;47.666;9.160;2023-01-31T12:57:25;97995.25;;;5.19;100.00
13594;BME280;6449;47.666;9.160;2023-01-31T13:07:40;97981.91;;;5.28;100.00
13594;BME280;6449;47.666;9.160;2023-01-31T13:12:36;97985.41;;;5.27;100.00
13594;BME280;6449;47.666;9.160;2023-01-31T13:17:37;97981.63;;;5.36;100.00
13594;BME280;6449;47.666;9.160;2023-01-31T13:22:38;97983.38;;;5.35;100.00
13594;BME280;6449;47.666;9.160;2023-01-31T13:27:43;97983.53;;;5.54;100.00
13594;BME280;6449;47.666;9.160;2023-01-31T13:32:45;97956.41;;;5.38;100.00
13594;BME280;6449;47.666;9.160;2023-01-31T13:37:43;97952.56;;;5.24;100.00
13594;BME280;6449;47.666;9.160;2023-01-31T13:42:38;97954.13;;;5.07;100.00
13594;BME280;6449;47.666;9.160;2023-01-31T13:47:39;97967.28;;;5.02;100.00
13594;BME280;6449;47.666;9.160;2023-01-31T13:52:45;97955.59;;;4.90;100.00
13594;BME280;6449;47.666;9.160;2023-01-31T13:57:51;97952.63;;;4.76;100.00
13594;BME280;6449;47.666;9.160;2023-01-31T14:13:24;97967.91;;;4.60;100.00
13594;BME280;6449;47.666;9.160;2023-01-31T14:18:38;97977.19;;;4.41;100.00
13594;BME280;6449;47.666;9.160;2023-01-31T14:23:44;97962.47;;;4.41;100.00
13594;BME280;6449;47.666;9.160;2023-01-31T14:28:43;97955.22;;;4.51;100.00
13594;BME280;6449;47.666;9.160;2023-01-31T14:33:37;97956.34;;;4.44;100.00
13594;BME280;6449;47.666;9.160;2023-01-31T14:43:56;97950.53;;;4.37;100.00
13594;BME280;6449;47.666;9.160;2023-01-31T14:49:51;97942.47;;;4.45;100.00
13594;BME280;6449;47.666;9.160;2023-01-31T14:55:23;97958.78;;;4.49;100.00
13594;BME280;6449;47.666;9.160;2023-01-31T15:00:25;97956.34;;;4.44;100.00
13594;BME280;6449;47.666;9.160;2023-01-31T15:15:32;97935.41;;;4.24;100.00
13594;BME280;6449;47.666;9.160;2023-01-31T15:20:37;97951.47;;;4.35;100.00
13594;BME280;6449;47.666;9.160;2023-01-31T15:25:41;97951.31;;;4.39;100.00
13594;BME280;6449;47.666;9.160;2023-01-31T15:41:05;97983.50;;;4.34;100.00
13594;BME280;6449;47.666;9.160;2023-01-31T15:46:12;97973.28;;;4.29;100.00
13594;BME280;6449;47.666;9.160;2023-01-31T15:51:12;97959.25;;;4.35;100.00
13594;BME280;6449;47.666;9.160;2023-01-31T15:56:17;97969.47;;;4.39;100.00
13594;BME280;6449;47.666;9.160;2023-01-31T16:01:15;97985.34;;;4.30;100.00
13594;BME280;6449;47.666;9.160;2023-01-31T16:11:11;97997.75;;;4.22;100.00
13594;BME280;6449;47.666;9.160;2023-01-31T16:16:07;97991.75;;;4.20;100.00
13594;BME280;6449;47.666;9.160;2023-01-31T16:21:15;97974.69;;;4.13;100.00
13594;BME280;6449;47.666;9.160;2023-01-31T16:26:22;97958.34;;;4.09;100.00
13594;BME280;6449;47.666;9.160;2023-01-31T16:31:20;97959.66;;;3.96;100.00
13594;BME280;6449;47.666;9.160;2023-01-31T16:41:44;97942.28;;;3.98;100.00
13594;BME280;6449;47.666;9.160;2023-01-31T16:46:41;97918.44;;;4.13;100.00
13594;BME280;6449;47.666;9.160;2023-01-31T16:51:42;97944.34;;;4.15;100.00
13594;BME280;6449;47.666;9.160;2023-01-31T16:56:37;97942.00;;;4.07;100.00
13594;BME280;6449;47.666;9.160;2023-01-31T17:01:42;97949.94;;;4.03;100.00
13594;BME280;6449;47.666;9.160;2023-01-31T17:06:41;97980.56;;;4.18;100.00
13594;BME280;6449;47.666;9.160;2023-01-31T17:11:39;97987.00;;;4.33;100.00
13594;BME280;6449;47.666;9.160;2023-01-31T17:16:35;98006.66;;;4.13;100.00
13594;BME280;6449;47.666;9.160;2023-01-31T17:26:23;98013.19;;;4.27;100.00
13594;BME280;6449;47.666;9.160;2023-01-31T17:31:21;98016.91;;;4.18;100.00
13594;BME280;6449;47.666;9.160;2023-01-31T17:36:16;97993.50;;;4.19;100.00
13594;BME280;6449;47.666;9.160;2023-01-31T17:41:14;98004.78;;;4.18;100.00
13594;BME280;6449;47.666;9.160;2023-01-31T17:46:10;97999.09;;;4.07;100.00
13594;BME280;6449;47.666;9.160;2023-01-31T17:56:06;98006.66;;;4.13;100.00
13594;BME280;6449;47.666;9.160;2023-01-31T18:00:59;98002.59;;;4.06;100.00
13594;BME280;6449;47.666;9.160;2023-01-31T18:05:53;98010.41;;;4.05;100.00
13594;BME280;6449;47.666;9.160;2023-01-31T18:10:46;98016.47;;;4.05;100.00
13594;BME280;6449;47.666;9.160;2023-01-31T18:15:41;98024.19;;;4.07;100.00
13594;BME280;6449;47.666;9.160;2023-01-31T18:20:36;98029.19;;;4.13;100.00
13594;BME280;6449;47.666;9.160;2023-01-31T18:25:30;98047.41;;;4.11;100.00
13594;BME280;6449;47.666;9.160;2023-01-31T18:30:24;98049.94;;;4.13;100.00
13594;BME280;6449;47.666;9.160;2023-01-31T18:35:19;98049.44;;;4.28;100.00
13594;BME280;6449;47.666;9.160;2023-01-31T18:40:14;98052.19;;;4.24;100.00
13594;BME280;6449;47.666;9.160;2023-01-31T18:45:09;98054.09;;;4.18;100.00
13594;BME280;6449;47.666;9.160;2023-01-31T18:50:04;98045.25;;;4.24;100.00
13594;BME280;6449;47.666;9.160;2023-01-31T18:54:59;98038.44;;;3.93;100.00
13594;BME280;6449;47.666;9.160;2023-01-31T18:59:52;98045.22;;;3.98;100.00
13594;BME280;6449;47.666;9.160;2023-01-31T19:04:46;98044.31;;;3.99;100.00
13594;BME280;6449;47.666;9.160;2023-01-31T19:09:39;98033.06;;;4.00;100.00
13594;BME280;6449;47.666;9.160;2023-01-31T19:14:37;98026.91;;;4.02;100.00
13594;BME280;6449;47.666;9.160;2023-01-31T19:19:30;98035.28;;;3.84;100.00
13594;BME280;6449;47.666;9.160;2023-01-31T19:24:23;98053.34;;;3.87;100.00
13594;BME280;6449;47.666;9.160;2023-01-31T19:29:18;98058.13;;;4.01;100.00
13594;BME280;6449;47.666;9.160;2023-01-31T19:34:13;98046.00;;;4.01;100.00
13594;BME280;6449;47.666;9.160;2023-01-31T19:39:12;98033.44;;;3.87;100.00
13594;BME280;6449;47.666;9.160;2023-01-31T19:44:06;98040.63;;;3.78;100.00
13594;BME280;6449;47.666;9.160;2023-01-31T19:54:04;98050.06;;;4.08;100.00
13594;BME280;6449;47.666;9.160;2023-01-31T19:58:59;98038.78;;;4.09;100.00
13594;BME280;6449;47.666;9.160;2023-01-31T20:03:57;98034.56;;;4.07;100.00
13594;BME280;6449;47.666;9.160;2023-01-31T20:08:52;98037.44;;;3.98;100.00
13594;BME280;6449;47.666;9.160;2023-01-31T20:13:51;98027.97;;;3.97;100.00
13594;BME280;6449;47.666;9.160;2023-01-31T20:18:48;98019.56;;;4.16;100.00
13594;BME280;6449;47.666;9.160;2023-01-31T20:23:43;98018.88;;;4.10;100.00
13594;BME280;6449;47.666;9.160;2023-01-31T20:28:37;98032.81;;;4.07;100.00
13594;BME280;6449;47.666;9.160;2023-01-31T20:33:33;98044.84;;;4.10;100.00
13594;BME280;6449;47.666;9.160;2023-01-31T20:38:27;98045.31;;;4.23;100.00
13594;BME280;6449;47.666;9.160;2023-01-31T20:43:24;98041.09;;;4.18;100.00
13594;BME280;6449;47.666;9.160;2023-01-31T20:53:23;98033.13;;;4.25;100.00
13594;BME280;6449;47.666;9.160;2023-01-31T20:58:19;98031.50;;;4.20;100.00
13594;BME280;6449;47.666;9.160;2023-01-31T21:03:15;98023.84;;;4.44;100.00
13594;BME280;6449;47.666;9.160;2023-01-31T21:08:09;98004.28;;;4.34;100.00
13594;BME280;6449;47.666;9.160;2023-01-31T21:13:04;97998.38;;;4.29;100.00
13594;BME280;6449;47.666;9.160;2023-01-31T21:17:57;97997.69;;;4.24;100.00
13594;BME280;6449;47.666;9.160;2023-01-31T21:22:51;98003.38;;;4.35;100.00
13594;BME280;6449;47.666;9.160;2023-01-31T21:27:47;97991.09;;;4.40;100.00
13594;BME280;6449;47.666;9.160;2023-01-31T21:32:41;97979.91;;;4.38;100.00
13594;BME280;6449;47.666;9.160;2023-01-31T21:37:35;97978.03;;;4.41;100.00
13594;BME280;6449;47.666;9.160;2023-01-31T21:42:28;97975.94;;;4.53;100.00
13594;BME280;6449;47.666;9.160;2023-01-31T21:47:22;97976.91;;;4.50;100.00
13594;BME280;6449;47.666;9.160;2023-01-31T21:52:16;97976.41;;;4.39;100.00
13594;BME280;6449;47.666;9.160;2023-01-31T21:57:10;97982.38;;;4.42;100.00
13594;BME280;6449;47.666;9.160;2023-01-31T22:02:03;97979.56;;;4.49;100.00
13594;BME280;6449;47.666;9.160;2023-01-31T22:06:57;97979.59;;;4.47;100.00
13594;BME280;6449;47.666;9.160;2023-01-31T22:11:52;97969.97;;;4.51;100.00
13594;BME280;6449;47.666;9.160;2023-01-31T22:16:45;97983.06;;;4.47;100.00
13594;BME280;6449;47.666;9.160;2023-01-31T22:21:41;97978.59;;;4.51;100.00
13594;BME280;6449;47.666;9.160;2023-01-31T22:26:39;97971.72;;;4.50;100.00
13594;BME280;6449;47.666;9.160;2023-01-31T22:31:35;97959.56;;;4.51;100.00
13594;BME280;6449;47.666;9.160;2023-01-31T22:36:28;97947.81;;;4.40;100.00
13594;BME280;6449;47.666;9.160;2023-01-31T22:41:22;97936.41;;;4.19;100.00
13594;BME280;6449;47.666;9.160;2023-01-31T22:46:18;97919.34;;;4.12;100.00
13594;BME280;6449;47.666;9.160;2023-01-31T22:51:15;97926.34;;;4.35;100.00
13594;BME280;6449;47.666;9.160;2023-01-31T22:56:11;97928.41;;;4.26;100.00
13594;BME280;6449;47.666;9.160;2023-01-31T23:01:12;97932.72;;;4.27;100.00
13594;BME280;6449;47.666;9.160;2023-01-31T23:06:07;97924.19;;;4.23;100.00
13594;BME280;6449;47.666;9.160;2023-01-31T23:11:07;97911.03;;;4.28;100.00
13594;BME280;6449;47.666;9.160;2023-01-31T23:16:02;97903.25;;;4.28;100.00
13594;BME280;6449;47.666;9.160;2023-01-31T23:21:05;97895.53;;;4.26;100.00
13594;BME280;6449;47.666;9.160;2023-01-31T23:25:58;97882.19;;;4.37;100.00
13594;BME280;6449;47.666;9.160;2023-01-31T23:30:53;97876.88;;;4.15;100.00
13594;BME280;6449;47.666;9.160;2023-01-31T23:35:47;97871.00;;;4.35;100.00
13594;BME280;6449;47.666;9.160;2023-01-31T23:40:40;97873.81;;;4.29;100.00
13594;BME280;6449;47.666;9.160;2023-01-31T23:45:34;97866.16;;;4.24;100.00
13594;BME280;6449;47.666;9.160;2023-01-31T23:50:29;97855.56;;;4.30;100.00
13594;BME280;6449;47.666;9.160;2023-01-31T23:55:22;97860.34;;;4.42;100.00
